Time;durP1;ratioP1;P1;durP2;ratioP2;P2;SDS_P1;SDS_P2;PMS_P1;PMS_P2;Temp;Humidity;BMP_temperature;BMP_pressure;BME280_temperature;BME280_humidity;BME280_pressure;Samples;Min_cycle;Max_cycle;Signal;HPM_P1;HPM_P2
2023/06/19 00:01:19;;;;;;;5.05;4.50;;;;;;;24.01;38.78;100791.84;16118262;19;129734;-51
2023/06/19 00:06:41;;;;;;;5.60;4.32;;;;;;;24.00;38.84;100801.38;16115099;19;129444;-49
2023/06/19 00:12:04;;;;;;;5.13;4.63;;;;;;;23.99;38.81;100805.28;16110220;19;130561;-48
2023/06/19 00:17:26;;;;;;;4.95;4.30;;;;;;;23.97;38.67;100820.38;16114959;19;131683;-49
2023/06/19 00:22:51;;;;;;;5.20;4.47;;;;;;;23.97;38.76;100820.38;16114324;19;132244;-48
2023/06/19 00:28:13;;;;;;;5.18;4.68;;;;;;;23.96;39.09;100826.25;16113598;19;130458;-49
2023/06/19 00:33:38;;;;;;;6.63;4.25;;;;;;;23.95;38.76;100839.38;16115571;19;130429;-48
2023/06/19 00:39:00;;;;;;;5.63;4.60;;;;;;;23.93;38.78;100841.63;16113202;19;130324;-48
2023/06/19 00:44:22;;;;;;;5.40;4.45;;;;;;;23.95;38.82;100849.72;16110733;19;129764;-48
2023/06/19 00:49:45;;;;;;;4.45;4.05;;;;;;;23.93;38.90;100858.38;16115134;19;129687;-54
2023/06/19 00:55:09;;;;;;;4.70;4.13;;;;;;;23.93;38.88;100858.38;16109020;19;131804;-47
2023/06/19 01:00:31;;;;;;;4.95;4.45;;;;;;;23.92;38.75;100856.72;16114936;19;130877;-48
2023/06/19 01:05:55;;;;;;;5.05;4.55;;;;;;;23.92;38.92;100856.72;16114122;19;131593;-46
2023/06/19 01:11:19;;;;;;;4.50;4.10;;;;;;;23.90;39.23;100858.94;16111526;19;130264;-47
2023/06/19 01:16:48;;;;;;;4.80;4.32;;;;;;;23.89;39.12;100862.88;16110737;19;131195;-48
2023/06/19 01:22:10;;;;;;;4.65;4.20;;;;;;;23.89;38.87;100851.69;16116542;19;130994;-48
2023/06/19 01:27:33;;;;;;;4.47;4.07;;;;;;;23.89;38.99;100850.88;16115674;19;130213;-48
2023/06/19 01:33:04;;;;;;;4.50;4.10;;;;;;;23.89;38.91;100862.88;16110393;19;130722;-49
2023/06/19 01:38:28;;;;;;;4.57;4.07;;;;;;;23.87;38.96;100867.91;16112745;19;130794;-49
2023/06/19 01:43:51;;;;;;;4.40;4.00;;;;;;;23.87;39.16;100879.09;16108672;19;130702;-49
2023/06/19 01:49:13;;;;;;;4.43;4.03;;;;;;;23.86;38.75;100880.22;16108980;19;129387;-48
2023/06/19 01:54:36;;;;;;;3.85;3.50;;;;;;;23.86;39.22;100888.59;16110459;19;130665;-51
2023/06/19 01:59:58;;;;;;;4.10;3.70;;;;;;;23.87;39.02;100886.63;16103926;19;132867;-46
2023/06/19 02:05:21;;;;;;;4.10;3.58;;;;;;;23.84;38.96;100899.22;16105508;19;130868;-50
2023/06/19 02:10:43;;;;;;;4.05;3.65;;;;;;;23.85;38.68;100894.44;16108881;19;129106;-48
2023/06/19 02:16:05;;;;;;;3.58;3.28;;;;;;;23.84;39.07;100904.81;16104261;19;131793;-49
2023/06/19 02:21:28;;;;;;;3.75;3.42;;;;;;;23.83;39.13;100914.28;16105886;19;129268;-46
2023/06/19 02:26:50;;;;;;;4.05;3.55;;;;;;;23.83;39.01;100911.50;16106867;19;134019;-46
2023/06/19 02:32:12;;;;;;;4.05;3.55;;;;;;;23.82;39.21;100912.63;16108551;19;130952;-47
2023/06/19 02:37:35;;;;;;;3.90;3.33;;;;;;;23.81;39.16;100919.31;16113738;19;129639;-48
2023/06/19 02:42:57;;;;;;;3.72;3.30;;;;;;;23.81;39.11;100916.53;16103705;19;130872;-46
2023/06/19 02:48:19;;;;;;;4.75;3.55;;;;;;;23.81;39.22;100930.50;16108585;19;130835;-47
2023/06/19 02:53:43;;;;;;;3.83;3.30;;;;;;;23.79;39.25;100930.78;16104708;19;130323;-49
2023/06/19 02:59:05;;;;;;;3.15;2.85;;;;;;;23.79;39.23;100936.38;16104390;19;130461;-49
2023/06/19 03:04:28;;;;;;;3.47;2.90;;;;;;;23.79;39.23;100944.75;16096808;19;130289;-50
2023/06/19 03:09:50;;;;;;;3.45;2.88;;;;;;;23.80;39.41;100942.78;16103167;19;131465;-47
2023/06/19 03:15:12;;;;;;;3.97;3.22;;;;;;;23.79;39.45;100935.53;16103508;19;130383;-50
2023/06/19 03:20:34;;;;;;;3.25;2.90;;;;;;;23.79;39.37;100941.13;16115677;19;131271;-49
2023/06/19 03:25:57;;;;;;;3.65;2.70;;;;;;;23.78;39.22;100945.03;16115953;19;130559;-46
2023/06/19 03:31:19;;;;;;;3.28;2.70;;;;;;;23.78;39.56;100961.78;16117423;19;129871;-48
2023/06/19 03:36:41;;;;;;;3.08;2.60;;;;;;;23.78;39.36;100961.78;16119069;19;129780;-48
2023/06/19 03:42:03;;;;;;;4.35;2.70;;;;;;;23.77;39.48;100971.28;16115430;19;129989;-46
2023/06/19 03:47:24;;;;;;;4.13;2.90;;;;;;;23.76;39.91;100978.84;16116368;19;130543;-50
2023/06/19 03:52:46;;;;;;;3.58;2.90;;;;;;;23.76;39.51;100989.16;16111490;19;130777;-50
2023/06/19 03:58:08;;;;;;;3.58;2.97;;;;;;;23.76;39.58;100994.75;16116209;19;131196;-51
2023/06/19 04:03:30;;;;;;;4.70;2.90;;;;;;;23.75;39.88;100993.09;16118571;19;130857;-48
2023/06/19 04:08:52;;;;;;;2.20;2.00;;;;;;;23.76;39.78;100994.75;16119487;19;131196;-48
2023/06/19 04:14:14;;;;;;;3.42;2.70;;;;;;;23.75;39.90;101012.66;16108860;19;131683;-47
2023/06/19 04:19:36;;;;;;;2.95;2.60;;;;;;;23.75;39.79;101012.66;16108949;19;130170;-47
2023/06/19 04:24:58;;;;;;;2.90;2.20;;;;;;;23.74;39.92;101019.34;16105507;19;130594;-48
2023/06/19 04:30:20;;;;;;;3.72;2.38;;;;;;;23.73;39.52;101029.66;16106195;19;130887;-50
2023/06/19 04:35:43;;;;;;;2.83;2.50;;;;;;;23.73;40.02;101040.84;16108526;19;132538;-48
2023/06/19 04:41:05;;;;;;;3.38;2.25;;;;;;;23.73;40.05;101037.22;16111274;19;131483;-49
2023/06/19 04:46:27;;;;;;;2.40;2.03;;;;;;;23.73;40.26;101040.00;16109962;19;131014;-48
2023/06/19 04:51:49;;;;;;;3.28;2.25;;;;;;;23.72;40.07;101047.53;16112939;19;131382;-47
2023/06/19 04:57:11;;;;;;;3.22;2.30;;;;;;;23.72;39.98;101049.50;16113097;19;131602;-45
2023/06/19 05:02:33;;;;;;;4.22;2.38;;;;;;;23.72;39.88;101057.88;16112200;19;130781;-50
2023/06/19 05:07:55;;;;;;;2.63;2.05;;;;;;;23.69;40.22;101056.50;16114194;19;129911;-49
2023/06/19 05:13:18;;;;;;;2.45;2.10;;;;;;;23.71;40.14;101067.38;16110804;19;130619;-47
2023/06/19 05:18:40;;;;;;;3.15;2.20;;;;;;;23.69;40.01;101059.28;16107463;19;130314;-52
2023/06/19 05:24:02;;;;;;;3.67;1.95;;;;;;;23.69;40.10;101069.59;16102179;19;129458;-45
2023/06/19 05:29:24;;;;;;;4.80;2.60;;;;;;;23.64;40.90;101071.28;16105859;19;129528;-47
2023/06/19 05:34:46;;;;;;;6.53;3.03;;;;;;;23.61;41.23;101073.78;16104709;19;130646;-47
2023/06/19 05:40:09;;;;;;;12.43;3.40;;;;;;;23.57;41.59;101073.47;16109066;19;130892;-48
2023/06/19 05:45:31;;;;;;;6.38;2.97;;;;;;;23.56;41.42;101082.97;16111253;19;130071;-48
2023/06/19 05:50:53;;;;;;;4.13;2.65;;;;;;;23.56;41.38;101087.72;16116849;19;129931;-49
2023/06/19 05:56:16;;;;;;;4.47;2.50;;;;;;;23.58;41.45;101085.47;16113096;19;130725;-48
2023/06/19 06:01:38;;;;;;;6.43;2.80;;;;;;;23.57;41.32;101104.19;16114330;19;129744;-49
2023/06/19 06:07:00;;;;;;;5.93;3.42;;;;;;;23.48;42.04;101097.47;16114191;19;129955;-49
2023/06/19 06:12:22;;;;;;;6.10;4.45;;;;;;;23.32;41.91;101116.97;16113623;19;130266;-47
2023/06/19 06:17:44;;;;;;;6.30;4.63;;;;;;;23.12;42.26;101128.06;16115490;19;130900;-45
2023/06/19 06:23:06;;;;;;;6.10;5.00;;;;;;;23.06;42.52;101138.38;16113938;19;129898;-47
2023/06/19 06:28:28;;;;;;;10.15;4.78;;;;;;;23.12;42.69;101150.38;16116088;19;130898;-50
2023/06/19 06:33:50;;;;;;;7.05;4.07;;;;;;;23.15;42.24;101166.56;16111816;19;130473;-44
2023/06/19 06:39:12;;;;;;;9.23;5.00;;;;;;;23.15;41.87;101172.16;16111595;19;129372;-46
2023/06/19 06:44:35;;;;;;;6.72;4.70;;;;;;;23.12;41.90;101167.97;16114559;19;131021;-46
2023/06/19 06:49:57;;;;;;;6.47;4.35;;;;;;;23.15;41.84;101180.53;16102918;19;129134;-52
2023/06/19 06:55:19;;;;;;;6.97;4.82;;;;;;;23.18;42.03;101188.34;16111065;19;129592;-45
2023/06/19 07:00:40;;;;;;;8.65;5.00;;;;;;;23.22;41.49;101192.28;16108523;19;130705;-45
2023/06/19 07:06:02;;;;;;;6.95;4.82;;;;;;;23.26;41.80;101207.41;16103567;19;130720;-46
2023/06/19 07:11:24;;;;;;;5.85;4.40;;;;;;;23.28;41.69;101199.56;16107242;19;129267;-51
2023/06/19 07:16:46;;;;;;;7.57;4.72;;;;;;;23.30;41.79;101193.75;16110371;19;129508;-45
2023/06/19 07:22:09;;;;;;;8.85;5.18;;;;;;;23.31;41.35;101201.81;16105620;19;129346;-45
2023/06/19 07:27:31;;;;;;;9.68;5.00;;;;;;;23.32;41.29;101202.69;16107619;19;131033;-47
2023/06/19 07:32:53;;;;;;;10.15;5.35;;;;;;;23.33;41.13;101201.53;16108835;19;129612;-47
2023/06/19 07:38:16;;;;;;;7.38;5.20;;;;;;;23.35;41.56;101205.75;16109051;19;133999;-48
2023/06/19 07:43:38;;;;;;;8.55;5.15;;;;;;;23.36;41.18;101212.16;16104261;19;129802;-44
2023/06/19 07:49:00;;;;;;;9.10;4.82;;;;;;;23.35;41.02;101211.34;16108303;19;131393;-44
2023/06/19 07:54:22;;;;;;;10.23;5.65;;;;;;;23.36;41.14;101198.22;16106857;19;129278;-48
2023/06/19 07:59:44;;;;;;;8.90;5.53;;;;;;;23.36;40.69;101184.25;16101882;19;129566;-46
2023/06/19 08:05:08;;;;;;;7.35;5.20;;;;;;;23.37;41.09;101205.47;16121123;19;130234;-50
2023/06/19 08:10:30;;;;;;;7.10;5.18;;;;;;;23.38;40.30;101209.13;16124135;19;129959;-48
2023/06/19 08:15:52;;;;;;;11.30;6.43;;;;;;;23.38;40.47;101203.53;16122803;19;129835;-48
2023/06/19 08:21:14;;;;;;;10.70;6.63;;;;;;;23.40;40.42;101209.66;16119377;19;129697;-47
2023/06/19 08:26:36;;;;;;;8.80;6.32;;;;;;;23.40;40.32;101218.03;16118943;19;130756;-47
2023/06/19 08:31:58;;;;;;;7.88;6.70;;;;;;;23.42;40.25;101229.78;16115604;19;129551;-46
2023/06/19 08:37:19;;;;;;;8.70;5.97;;;;;;;23.46;40.33;101228.13;16121619;19;131389;-45
2023/06/19 08:42:43;;;;;;;11.13;5.90;;;;;;;23.48;39.98;101237.91;16118066;19;129376;-46
2023/06/19 08:48:05;;;;;;;10.40;5.30;;;;;;;23.49;40.55;101234.00;16113515;19;131094;-44
2023/06/19 08:53:27;;;;;;;10.30;5.72;;;;;;;23.54;40.37;101232.38;16119156;19;130591;-46
2023/06/19 08:58:49;;;;;;;7.63;5.75;;;;;;;23.57;40.27;101248.59;16114696;19;129731;-47
2023/06/19 09:04:13;;;;;;;8.98;6.07;;;;;;;23.60;40.29;101250.84;16115760;19;131224;-49
2023/06/19 09:09:35;;;;;;;6.97;5.53;;;;;;;23.60;40.69;101246.13;16119678;19;130082;-50
2023/06/19 09:14:57;;;;;;;6.68;5.55;;;;;;;23.61;40.56;101250.59;16118451;19;130450;-54
2023/06/19 09:20:27;;;;;;;10.10;5.90;;;;;;;23.63;40.45;101256.72;16119765;19;129624;-52
2023/06/19 09:25:52;;;;;;;6.68;5.72;;;;;;;23.63;40.40;101262.31;16118752;19;130540;-53
2023/06/19 09:31:14;;;;;;;8.97;5.87;;;;;;;23.64;40.52;101258.41;16117759;19;131591;-53
2023/06/19 09:36:36;;;;;;;11.65;6.32;;;;;;;23.65;40.24;101265.66;16115716;19;131985;-51
2023/06/19 09:42:00;;;;;;;8.20;6.30;;;;;;;23.65;40.13;101260.09;16116561;19;130968;-50
2023/06/19 09:47:24;;;;;;;10.88;7.82;;;;;;;23.64;40.29;101269.56;16114213;19;129655;-49
2023/06/19 09:52:46;;;;;;;9.20;6.32;;;;;;;23.63;39.66;101267.88;16116559;19;129952;-47
2023/06/19 09:58:09;;;;;;;10.18;6.63;;;;;;;23.65;40.11;101264.84;16113294;19;129575;-48
2023/06/19 10:03:33;;;;;;;11.50;6.68;;;;;;;23.68;40.03;101275.47;16114679;19;130908;-48
2023/06/19 10:08:55;;;;;;;8.02;5.68;;;;;;;23.71;39.66;101272.13;16116126;19;135698;-48
2023/06/19 10:14:21;;;;;;;7.97;6.30;;;;;;;23.73;39.65;101277.44;16113883;19;129838;-45
2023/06/19 10:19:50;;;;;;;11.93;6.70;;;;;;;23.75;39.61;101270.47;16112845;19;129420;-47
2023/06/19 10:25:20;;;;;;;9.93;6.20;;;;;;;23.78;39.78;101267.13;16110348;19;129705;-50
2023/06/19 10:30:43;;;;;;;10.68;6.75;;;;;;;23.77;40.17;101267.38;16112407;19;130755;-47
2023/06/19 10:36:25;;;;;;;9.18;6.00;;;;;;;23.80;39.87;101272.44;16112770;19;130741;-47
2023/06/19 10:41:48;;;;;;;8.13;6.25;;;;;;;23.79;39.84;101266.03;16111792;19;129463;-48
2023/06/19 10:47:10;;;;;;;7.13;6.13;;;;;;;23.80;39.68;101255.66;16113930;19;129505;-45
2023/06/19 10:52:32;;;;;;;10.18;6.68;;;;;;;23.80;39.89;101252.88;16110458;19;130805;-47
2023/06/19 10:57:54;;;;;;;9.45;6.28;;;;;;;23.84;39.99;101250.38;16107473;19;129949;-43
2023/06/19 11:03:16;;;;;;;17.08;6.70;;;;;;;23.91;39.62;101250.97;16110842;19;130326;-48
2023/06/19 11:08:38;;;;;;;15.45;6.50;;;;;;;23.96;39.31;101250.97;16111125;19;129555;-44
2023/06/19 11:14:01;;;;;;;23.83;14.75;;;;;;;24.05;39.37;101246.53;16109941;19;129592;-49
2023/06/19 11:19:29;;;;;;;47.25;23.63;;;;;;;24.14;39.52;101249.63;16100794;19;133111;-48
2023/06/19 11:24:52;;;;;;;30.33;17.00;;;;;;;24.20;39.29;101239.28;16105226;19;130203;-47
2023/06/19 11:30:14;;;;;;;37.50;19.05;;;;;;;24.26;39.17;101246.59;16108214;19;131381;-51
2023/06/19 11:35:36;;;;;;;96.70;48.63;;;;;;;24.31;39.08;101240.19;16102726;19;129764;-54
2023/06/19 11:40:58;;;;;;;91.50;46.50;;;;;;;24.33;39.54;101235.16;16126580;19;129309;-52
2023/06/19 11:46:28;;;;;;;58.13;28.88;;;;;;;24.37;38.86;101236.28;16123400;19;130047;-50
2023/06/19 11:51:50;;;;;;;61.25;33.90;;;;;;;24.38;38.58;101237.94;16125472;19;131644;-53
2023/06/19 11:57:12;;;;;;;49.40;25.80;;;;;;;24.40;38.71;101241.28;16127606;19;129519;-52
2023/06/19 12:02:34;;;;;;;127.45;69.28;;;;;;;24.42;38.72;101233.47;16123892;19;129611;-47
2023/06/19 12:07:56;;;;;;;130.23;74.18;;;;;;;24.46;38.76;101243.00;16122051;19;129617;-47
2023/06/19 12:13:18;;;;;;;96.47;54.05;;;;;;;24.48;38.90;101237.97;16122997;19;131606;-49
2023/06/19 12:18:41;;;;;;;65.53;36.97;;;;;;;24.50;38.29;101232.91;16120531;19;131385;-47
2023/06/19 12:24:03;;;;;;;53.45;29.10;;;;;;;24.49;38.28;101233.19;16118753;19;131958;-47
2023/06/19 12:29:26;;;;;;;46.80;23.50;;;;;;;24.49;38.26;101219.22;16116055;19;129648;-49
2023/06/19 12:34:53;;;;;;;38.13;19.50;;;;;;;24.47;38.10;101219.50;16111709;19;129735;-51
2023/06/19 12:40:16;;;;;;;29.15;16.50;;;;;;;24.47;38.32;101213.06;16108185;19;130340;-47
2023/06/19 12:45:38;;;;;;;30.33;15.25;;;;;;;24.48;37.68;101214.75;16118349;19;129601;-47
2023/06/19 12:51:00;;;;;;;25.08;13.25;;;;;;;24.48;38.03;101209.13;16115445;19;130225;-46
2023/06/19 12:56:22;;;;;;;22.73;12.18;;;;;;;24.47;38.03;101202.72;16115732;19;129358;-48
2023/06/19 13:01:45;;;;;;;17.42;10.82;;;;;;;24.48;37.54;101204.41;16119113;19;129389;-51
2023/06/19 13:07:07;;;;;;;18.58;10.50;;;;;;;24.49;37.90;101205.22;16122350;19;129451;-47
2023/06/19 13:12:29;;;;;;;28.58;9.65;;;;;;;24.50;37.33;101202.13;16119903;19;129246;-49
2023/06/19 13:17:50;;;;;;;18.48;8.77;;;;;;;24.53;37.29;101200.75;16111043;19;129332;-47
2023/06/19 13:23:12;;;;;;;20.15;7.72;;;;;;;24.52;36.76;101201.88;16114671;19;130489;-48
2023/06/19 13:28:35;;;;;;;15.52;7.70;;;;;;;24.53;36.69;101190.41;16118609;19;130300;-46
2023/06/19 13:33:58;;;;;;;18.20;7.72;;;;;;;24.51;36.80;101187.03;16114981;19;129445;-49
2023/06/19 13:39:20;;;;;;;15.75;6.60;;;;;;;24.52;36.71;101183.13;16115700;19;130997;-46
2023/06/19 13:44:42;;;;;;;13.27;7.13;;;;;;;24.53;36.60;101184.81;16111234;19;131142;-49
2023/06/19 13:50:06;;;;;;;9.75;6.38;;;;;;;24.53;36.35;101181.19;16114542;19;130356;-45
2023/06/19 13:55:28;;;;;;;11.97;6.07;;;;;;;24.52;36.20;101183.13;16114869;19;130290;-47
2023/06/19 14:00:50;;;;;;;13.32;6.25;;;;;;;24.52;36.55;101168.31;16111953;19;133191;-45
2023/06/19 14:06:12;;;;;;;11.57;5.60;;;;;;;24.56;36.54;101166.63;16113166;19;129206;-46
2023/06/19 14:11:34;;;;;;;10.05;6.00;;;;;;;24.56;36.27;101169.41;16116466;19;130062;-50
2023/06/19 14:17:00;;;;;;;10.70;6.35;;;;;;;24.56;36.54;101161.88;16112256;19;130649;-49
2023/06/19 14:22:22;;;;;;;8.43;4.97;;;;;;;24.58;36.72;101154.03;16115066;19;130539;-49
2023/06/19 14:27:44;;;;;;;12.10;5.53;;;;;;;24.56;37.04;101153.47;16115475;19;129624;-46
2023/06/19 14:33:10;;;;;;;14.18;6.15;;;;;;;24.54;36.71;101147.31;16112242;19;130389;-49
2023/06/19 14:38:33;;;;;;;8.45;5.38;;;;;;;24.54;37.18;101143.72;16116038;19;129750;-50
2023/06/19 14:43:55;;;;;;;8.43;5.93;;;;;;;24.56;36.90;101147.88;16114645;19;130908;-47
2023/06/19 14:49:17;;;;;;;7.25;5.47;;;;;;;24.55;37.01;101143.41;16108008;19;131270;-48
2023/06/19 14:54:39;;;;;;;10.88;5.22;;;;;;;24.54;36.83;101140.91;16108244;19;130053;-52
2023/06/19 15:00:01;;;;;;;9.70;5.57;;;;;;;24.55;37.11;101137.81;16104202;19;131366;-47
2023/06/19 15:05:23;;;;;;;12.52;5.75;;;;;;;24.52;37.17;101138.38;16109765;19;129459;-47
2023/06/19 15:10:45;;;;;;;11.02;5.65;;;;;;;24.52;36.82;101137.56;16112394;19;129487;-43
2023/06/19 15:16:07;;;;;;;13.50;5.38;;;;;;;24.52;37.49;101138.38;16122628;19;132073;-48
2023/06/19 15:21:29;;;;;;;7.63;5.40;;;;;;;24.52;37.45;101138.38;16122110;19;129860;-46
2023/06/19 15:26:51;;;;;;;8.73;5.95;;;;;;;24.51;37.19;101131.09;16118211;19;131387;-52
2023/06/19 15:32:13;;;;;;;10.25;5.57;;;;;;;24.51;37.33;101128.31;16121918;19;131100;-49
2023/06/19 15:37:35;;;;;;;13.15;5.40;;;;;;;24.49;37.21;101122.19;16123365;19;130535;-46
2023/06/19 15:42:57;;;;;;;8.93;5.72;;;;;;;24.51;37.30;101117.13;16119927;19;130045;-46
2023/06/19 15:48:19;;;;;;;9.88;6.18;;;;;;;24.52;37.35;101115.19;16119765;19;130446;-44
2023/06/19 15:53:41;;;;;;;7.25;5.32;;;;;;;24.52;37.25;101115.19;16121093;19;130104;-43
2023/06/19 15:59:03;;;;;;;10.52;5.40;;;;;;;24.53;37.03;101108.47;16117113;19;130972;-44
2023/06/19 16:04:25;;;;;;;10.65;5.68;;;;;;;24.51;37.30;101105.94;16119889;19;130267;-44
2023/06/19 16:09:47;;;;;;;8.88;5.15;;;;;;;24.52;37.03;101110.41;16117193;19;130091;-43
2023/06/19 16:15:17;;;;;;;8.18;5.20;;;;;;;24.53;37.60;101094.47;16121121;19;131007;-46
2023/06/19 16:20:39;;;;;;;9.05;5.13;;;;;;;24.52;37.59;101107.63;16118476;19;130550;-44
2023/06/19 16:26:02;;;;;;;10.43;5.10;;;;;;;24.51;37.12;101102.31;16110454;19;130591;-47
2023/06/19 16:31:24;;;;;;;9.20;5.10;;;;;;;24.52;37.33;101098.41;16112071;19;131257;-45
2023/06/19 16:36:47;;;;;;;8.73;5.15;;;;;;;24.50;37.36;101095.88;16122755;19;129782;-49
2023/06/19 16:42:09;;;;;;;10.77;5.50;;;;;;;24.50;37.56;101090.28;16119960;19;129742;-44
2023/06/19 16:47:31;;;;;;;7.50;5.57;;;;;;;24.51;37.19;101093.94;16119007;19;131507;-45
2023/06/19 16:52:53;;;;;;;6.15;5.25;;;;;;;24.50;37.50;101087.47;16118927;19;129611;-43
2023/06/19 16:58:15;;;;;;;7.60;5.43;;;;;;;24.50;37.63;101084.69;16117487;19;130920;-42
2023/06/19 17:03:37;;;;;;;9.07;5.95;;;;;;;24.51;37.03;101072.38;16117333;19;131290;-42
2023/06/19 17:08:59;;;;;;;11.32;5.70;;;;;;;24.52;36.94;101068.47;16111788;19;131018;-43
2023/06/19 17:14:21;;;;;;;14.88;5.45;;;;;;;24.51;37.09;101069.56;16114345;19;130925;-48
2023/06/19 17:19:42;;;;;;;9.38;4.82;;;;;;;24.52;36.88;101071.25;16104262;19;131037;-43
2023/06/19 17:25:06;;;;;;;12.25;5.20;;;;;;;24.52;37.02;101076.03;16107001;19;130387;-44
2023/06/19 17:30:27;;;;;;;8.88;5.38;;;;;;;24.51;37.34;101086.34;16111583;19;131632;-45
2023/06/19 17:35:49;;;;;;;11.55;4.85;;;;;;;24.50;37.24;101072.66;16105925;19;130563;-48
2023/06/19 17:41:11;;;;;;;10.90;5.43;;;;;;;24.50;37.18;101072.66;16110272;19;129583;-44
2023/06/19 17:46:33;;;;;;;7.32;4.55;;;;;;;24.49;37.17;101077.44;16109947;19;130285;-45
2023/06/19 17:51:55;;;;;;;9.55;5.20;;;;;;;24.49;37.14;101084.97;16109216;19;130890;-45
2023/06/19 17:57:17;;;;;;;8.10;4.75;;;;;;;24.49;37.27;101087.78;16112937;19;131645;-45
2023/06/19 18:02:39;;;;;;;11.38;5.05;;;;;;;24.47;36.96;101079.69;16115405;19;130720;-44
2023/06/19 18:08:02;;;;;;;5.97;4.70;;;;;;;24.47;37.57;101073.22;16108013;19;131144;-47
2023/06/19 18:13:24;;;;;;;8.52;4.75;;;;;;;24.46;37.21;101072.41;16114404;19;130603;-45
2023/06/19 18:18:46;;;;;;;6.32;4.70;;;;;;;24.45;37.43;101070.72;16108936;19;131999;-44
2023/06/19 18:24:08;;;;;;;5.88;4.60;;;;;;;24.45;37.31;101076.31;16112935;19;129677;-46
2023/06/19 18:29:30;;;;;;;6.03;4.53;;;;;;;24.45;37.36;101081.91;16113874;19;129573;-45
2023/06/19 18:34:53;;;;;;;6.75;4.50;;;;;;;24.45;37.25;101065.13;16101964;19;129725;-47
2023/06/19 18:40:15;;;;;;;6.93;4.43;;;;;;;24.44;37.33;101057.88;16109352;19;129368;-44
2023/06/19 18:45:37;;;;;;;8.48;4.72;;;;;;;24.40;37.52;101057.59;16103856;19;130222;-45
2023/06/19 18:50:59;;;;;;;7.32;4.72;;;;;;;24.39;37.36;101066.25;16103697;19;129894;-44
2023/06/19 18:56:21;;;;;;;13.43;4.68;;;;;;;24.38;37.30;101072.97;16110938;19;129791;-44
2023/06/19 19:01:43;;;;;;;7.47;4.00;;;;;;;24.37;37.32;101079.69;16112502;19;129511;-45
2023/06/19 19:07:05;;;;;;;7.90;4.63;;;;;;;24.35;37.34;101074.38;16109245;19;129255;-46
2023/06/19 19:12:27;;;;;;;8.32;4.88;;;;;;;24.34;37.43;101078.28;16105123;19;131657;-46
2023/06/19 19:17:50;;;;;;;10.38;4.85;;;;;;;24.33;37.62;101073.81;16110049;19;132475;-46
2023/06/19 19:23:12;;;;;;;5.65;4.20;;;;;;;24.32;37.66;101066.53;16111004;19;130426;-49
2023/06/19 19:28:35;;;;;;;8.48;4.68;;;;;;;24.33;37.63;101068.22;16102827;19;131659;-45
2023/06/19 19:33:57;;;;;;;11.43;4.72;;;;;;;24.33;37.69;101057.03;16104779;19;129920;-48
2023/06/19 19:39:19;;;;;;;6.20;4.22;;;;;;;24.35;37.81;101068.78;16106233;19;129477;-51
2023/06/19 19:44:41;;;;;;;4.82;3.65;;;;;;;24.35;37.89;101067.94;16107283;19;130319;-45
2023/06/19 19:50:03;;;;;;;8.60;4.38;;;;;;;24.36;37.90;101078.84;16101327;19;131104;-45
2023/06/19 19:55:25;;;;;;;9.00;4.43;;;;;;;24.38;38.01;101095.31;16107662;19;130089;-49
2023/06/19 20:00:49;;;;;;;9.25;4.32;;;;;;;24.38;37.97;101086.94;16120724;19;130641;-44
2023/06/19 20:06:11;;;;;;;9.15;4.45;;;;;;;24.39;37.85;101092.25;16120888;19;130077;-47
2023/06/19 20:11:33;;;;;;;21.23;5.60;;;;;;;24.37;38.37;101094.50;16122583;19;130039;-45
2023/06/19 20:16:55;;;;;;;12.00;4.68;;;;;;;24.36;38.10;101100.38;16105485;19;131566;-45
2023/06/19 20:22:17;;;;;;;15.00;4.38;;;;;;;24.36;38.46;101103.19;16112407;19;131090;-46
2023/06/19 20:27:39;;;;;;;7.50;4.45;;;;;;;24.36;38.22;101119.97;16113316;19;131100;-45
2023/06/19 20:33:01;;;;;;;10.85;4.65;;;;;;;24.34;38.28;101119.41;16098585;19;130726;-48
2023/06/19 20:38:23;;;;;;;11.80;5.13;;;;;;;24.32;38.54;101125.25;16107315;19;131215;-45
2023/06/19 20:43:45;;;;;;;9.98;4.60;;;;;;;24.31;38.25;101119.94;16108319;19;131521;-48
2023/06/19 20:49:07;;;;;;;8.85;4.50;;;;;;;24.31;38.65;101125.53;16115599;19;130137;-47
2023/06/19 20:54:29;;;;;;;8.75;4.63;;;;;;;24.30;38.53;101137.84;16115951;19;129689;-48
2023/06/19 20:59:51;;;;;;;8.80;4.80;;;;;;;24.29;38.21;101144.56;16113926;19;133303;-49
2023/06/19 21:05:15;;;;;;;7.50;4.28;;;;;;;24.29;38.63;101150.16;16112897;19;130515;-44
2023/06/19 21:10:38;;;;;;;8.00;4.77;;;;;;;24.27;38.54;101145.66;16110159;19;130286;-48
2023/06/19 21:16:00;;;;;;;13.40;4.55;;;;;;;24.26;38.64;101141.19;16109086;19;131643;-44
2023/06/19 21:21:22;;;;;;;8.40;4.28;;;;;;;24.25;38.76;101136.72;16109170;19;129829;-46
2023/06/19 21:26:44;;;;;;;6.47;4.63;;;;;;;24.22;38.73;101128.03;16111376;19;129634;-46
2023/06/19 21:32:06;;;;;;;7.35;4.63;;;;;;;24.22;38.75;101131.69;16103586;19;130209;-49
2023/06/19 21:37:28;;;;;;;7.07;4.18;;;;;;;24.24;39.01;101123.88;16110261;19;131151;-45
2023/06/19 21:42:50;;;;;;;6.50;4.53;;;;;;;24.23;38.89;101124.97;16112334;19;129483;-49
2023/06/19 21:48:12;;;;;;;8.55;4.90;;;;;;;24.22;38.97;101120.50;16111772;19;130976;-45
2023/06/19 21:53:34;;;;;;;7.90;4.32;;;;;;;24.21;38.82;101118.81;16112076;19;130213;-45
2023/06/19 21:58:56;;;;;;;9.10;4.80;;;;;;;24.20;39.09;101111.53;16093309;19;129796;-49
2023/06/19 22:04:18;;;;;;;7.88;4.38;;;;;;;24.20;39.11;101111.53;16110566;19;129823;-45
2023/06/19 22:09:40;;;;;;;11.02;4.45;;;;;;;24.19;38.70;101107.06;16110579;19;129869;-47
2023/06/19 22:15:03;;;;;;;7.60;4.20;;;;;;;24.19;38.84;101101.47;16108839;19;130591;-46
2023/06/19 22:20:25;;;;;;;6.43;4.82;;;;;;;24.18;38.71;101099.81;16110373;19;131787;-48
2023/06/19 22:25:47;;;;;;;4.70;4.18;;;;;;;24.17;38.55;101098.13;16107982;19;129740;-48
2023/06/19 22:31:09;;;;;;;4.40;3.88;;;;;;;24.17;38.89;101092.53;16107275;19;130422;-51
2023/06/19 22:36:31;;;;;;;7.50;4.40;;;;;;;24.16;38.80;101090.84;16109457;19;134352;-46
2023/06/19 22:41:53;;;;;;;5.65;3.80;;;;;;;24.16;39.17;101079.66;16103426;19;129717;-46
2023/06/19 22:47:15;;;;;;;6.80;4.63;;;;;;;24.16;39.14;101088.06;16108393;19;129908;-47
2023/06/19 22:52:37;;;;;;;4.80;4.00;;;;;;;24.17;38.77;101086.13;16106347;19;130474;-44
2023/06/19 22:57:59;;;;;;;6.07;4.10;;;;;;;24.16;38.76;101087.22;16102315;19;129314;-44
2023/06/19 23:03:21;;;;;;;5.90;4.10;;;;;;;24.15;38.96;101083.59;16104276;19;131218;-47
2023/06/19 23:08:44;;;;;;;6.70;4.18;;;;;;;24.16;38.77;101078.84;16107665;19;130062;-45
2023/06/19 23:14:06;;;;;;;6.40;4.13;;;;;;;24.15;38.87;101078.00;16110206;19;130552;-49
2023/06/19 23:19:28;;;;;;;4.82;4.00;;;;;;;24.15;38.90;101079.97;16102201;19;130700;-47
2023/06/19 23:24:51;;;;;;;5.40;4.10;;;;;;;24.14;38.86;101070.72;16105430;19;130749;-48
2023/06/19 23:30:13;;;;;;;4.97;4.07;;;;;;;24.13;38.68;101069.03;16105066;19;130853;-44
2023/06/19 23:35:35;;;;;;;7.00;4.30;;;;;;;24.13;38.65;101060.66;16116370;19;130090;-44
2023/06/19 23:40:57;;;;;;;8.23;4.35;;;;;;;24.12;38.66;101056.22;16117187;19;130957;-48
2023/06/19 23:46:19;;;;;;;7.32;4.25;;;;;;;24.11;38.83;101048.94;16119134;19;130252;-43
2023/06/19 23:51:41;;;;;;;4.28;3.70;;;;;;;24.10;38.61;101048.09;16117402;19;130104;-48
2023/06/19 23:57:03;;;;;;;5.85;4.35;;;;;;;24.09;38.67;101043.63;16113027;19;130534;-48
